sensor_id;sensor_type;location;lat;lon;timestamp;pressure;altitude;pressure_sealevel;temperature;humidity
54948;BME280;41113;41.882;12.530;2023-05-10T00:00:27;100827.69;;;19.87;70.36
54948;BME280;41113;41.882;12.530;2023-05-10T00:02:52;100823.53;;;19.91;69.96
54948;BME280;41113;41.882;12.530;2023-05-10T00:05:18;100816.84;;;19.94;69.74
54948;BME280;41113;41.882;12.530;2023-05-10T00:07:43;100811.13;;;19.88;69.60
54948;BME280;41113;41.882;12.530;2023-05-10T00:10:10;100803.16;;;19.87;69.67
54948;BME280;41113;41.882;12.530;2023-05-10T00:12:35;100797.50;;;19.88;69.32
54948;BME280;41113;41.882;12.530;2023-05-10T00:15:01;100798.34;;;19.89;69.21
54948;BME280;41113;41.882;12.530;2023-05-10T00:17:26;100789.41;;;19.44;70.29
54948;BME280;41113;41.882;12.530;2023-05-10T00:19:52;100788.13;;;19.55;70.25
54948;BME280;41113;41.882;12.530;2023-05-10T00:22:17;100788.91;;;19.70;69.75
54948;BME280;41113;41.882;12.530;2023-05-10T00:24:42;100782.47;;;19.78;69.77
54948;BME280;41113;41.882;12.530;2023-05-10T00:27:08;100789.03;;;19.83;69.21
54948;BME280;41113;41.882;12.530;2023-05-10T00:29:33;100778.13;;;19.83;69.35
54948;BME280;41113;41.882;12.530;2023-05-10T00:31:58;100778.53;;;19.80;69.43
54948;BME280;41113;41.882;12.530;2023-05-10T00:34:24;100784.16;;;19.79;69.72
54948;BME280;41113;41.882;12.530;2023-05-10T00:36:50;100772.31;;;19.86;69.42
54948;BME280;41113;41.882;12.530;2023-05-10T00:39:15;100775.69;;;19.88;69.27
54948;BME280;41113;41.882;12.530;2023-05-10T00:41:40;100771.53;;;19.93;69.08
54948;BME280;41113;41.882;12.530;2023-05-10T00:44:06;100759.41;;;19.95;68.94
54948;BME280;41113;41.882;12.530;2023-05-10T00:46:31;100758.16;;;19.98;68.77
54948;BME280;41113;41.882;12.530;2023-05-10T00:48:58;100758.34;;;19.96;68.90
54948;BME280;41113;41.882;12.530;2023-05-10T00:51:24;100754.72;;;19.89;69.03
54948;BME280;41113;41.882;12.530;2023-05-10T00:53:50;100757.94;;;19.78;69.53
54948;BME280;41113;41.882;12.530;2023-05-10T00:56:16;100748.09;;;19.55;70.26
54948;BME280;41113;41.882;12.530;2023-05-10T00:58:42;100742.66;;;19.55;70.25
54948;BME280;41113;41.882;12.530;2023-05-10T01:01:08;100746.66;;;19.60;70.04
54948;BME280;41113;41.882;12.530;2023-05-10T01:03:34;100740.25;;;19.67;69.78
54948;BME280;41113;41.882;12.530;2023-05-10T01:06:00;100747.25;;;19.76;69.44
54948;BME280;41113;41.882;12.530;2023-05-10T01:08:25;100736.16;;;19.78;69.26
54948;BME280;41113;41.882;12.530;2023-05-10T01:10:51;100736.88;;;19.29;69.58
54948;BME280;41113;41.882;12.530;2023-05-10T01:13:29;100735.97;;;19.22;69.84
54948;BME280;41113;41.882;12.530;2023-05-10T01:15:56;100737.47;;;19.10;70.31
54948;BME280;41113;41.882;12.530;2023-05-10T01:18:22;100744.72;;;19.03;70.54
54948;BME280;41113;41.882;12.530;2023-05-10T01:20:55;100740.69;;;18.99;70.69
54948;BME280;41113;41.882;12.530;2023-05-10T01:32:19;100735.63;;;18.95;70.72
54948;BME280;41113;41.882;12.530;2023-05-10T01:35:10;100729.78;;;18.99;70.24
54948;BME280;41113;41.882;12.530;2023-05-10T01:37:47;100733.16;;;19.01;69.90
54948;BME280;41113;41.882;12.530;2023-05-10T01:41:00;100734.09;;;19.08;69.00
54948;BME280;41113;41.882;12.530;2023-05-10T01:43:36;100729.56;;;19.15;69.17
54948;BME280;41113;41.882;12.530;2023-05-10T01:46:05;100728.91;;;19.13;68.83
54948;BME280;41113;41.882;12.530;2023-05-10T01:48:47;100722.34;;;19.07;68.56
54948;BME280;41113;41.882;12.530;2023-05-10T01:51:21;100735.69;;;19.02;68.89
54948;BME280;41113;41.882;12.530;2023-05-10T01:53:48;100728.88;;;18.91;69.19
54948;BME280;41113;41.882;12.530;2023-05-10T01:56:15;100721.63;;;18.84;71.01
54948;BME280;41113;41.882;12.530;2023-05-10T01:58:44;100727.06;;;18.84;70.64
54948;BME280;41113;41.882;12.530;2023-05-10T02:01:13;100726.81;;;18.93;70.64
54948;BME280;41113;41.882;12.530;2023-05-10T02:03:39;100722.81;;;19.11;70.47
54948;BME280;41113;41.882;12.530;2023-05-10T02:06:07;100726.66;;;19.16;70.45
54948;BME280;41113;41.882;12.530;2023-05-10T02:08:35;100722.22;;;19.30;70.19
54948;BME280;41113;41.882;12.530;2023-05-10T02:11:03;100720.41;;;19.37;70.14
54948;BME280;41113;41.882;12.530;2023-05-10T02:13:29;100726.81;;;19.30;70.99
54948;BME280;41113;41.882;12.530;2023-05-10T02:15:59;100725.06;;;19.22;72.16
54948;BME280;41113;41.882;12.530;2023-05-10T02:18:25;100723.84;;;19.10;72.25
54948;BME280;41113;41.882;12.530;2023-05-10T02:20:53;100724.81;;;19.02;72.99
54948;BME280;41113;41.882;12.530;2023-05-10T02:23:21;100722.66;;;18.98;73.83
54948;BME280;41113;41.882;12.530;2023-05-10T02:25:49;100721.34;;;18.93;74.04
54948;BME280;41113;41.882;12.530;2023-05-10T02:28:16;100722.13;;;18.87;75.33
54948;BME280;41113;41.882;12.530;2023-05-10T02:30:43;100716.09;;;18.77;75.46
54948;BME280;41113;41.882;12.530;2023-05-10T02:33:09;100718.28;;;18.67;75.65
54948;BME280;41113;41.882;12.530;2023-05-10T02:35:36;100723.06;;;18.65;75.84
54948;BME280;41113;41.882;12.530;2023-05-10T02:38:04;100708.59;;;18.79;75.00
54948;BME280;41113;41.882;12.530;2023-05-10T02:40:30;100708.03;;;18.99;74.21
54948;BME280;41113;41.882;12.530;2023-05-10T02:42:56;100706.47;;;19.11;73.57
54948;BME280;41113;41.882;12.530;2023-05-10T02:45:27;100707.53;;;19.10;73.71
54948;BME280;41113;41.882;12.530;2023-05-10T02:47:54;100702.56;;;18.99;74.21
54948;BME280;41113;41.882;12.530;2023-05-10T02:50:20;100719.28;;;18.95;74.71
54948;BME280;41113;41.882;12.530;2023-05-10T02:52:50;100711.69;;;18.91;74.86
54948;BME280;41113;41.882;12.530;2023-05-10T02:55:21;100707.84;;;18.85;75.55
54948;BME280;41113;41.882;12.530;2023-05-10T02:57:58;100714.13;;;18.86;75.72
54948;BME280;41113;41.882;12.530;2023-05-10T03:00:25;100702.22;;;18.72;77.28
54948;BME280;41113;41.882;12.530;2023-05-10T03:02:50;100703.38;;;18.63;77.56
54948;BME280;41113;41.882;12.530;2023-05-10T03:05:16;100697.81;;;18.56;77.90
54948;BME280;41113;41.882;12.530;2023-05-10T03:07:42;100701.81;;;18.46;79.24
54948;BME280;41113;41.882;12.530;2023-05-10T03:10:07;100697.69;;;18.50;78.40
54948;BME280;41113;41.882;12.530;2023-05-10T03:15:42;100690.66;;;18.41;79.35
54948;BME280;41113;41.882;12.530;2023-05-10T03:18:20;100694.41;;;18.40;79.17
54948;BME280;41113;41.882;12.530;2023-05-10T03:20:51;100697.03;;;18.48;79.28
54948;BME280;41113;41.882;12.530;2023-05-10T03:23:53;100694.31;;;18.48;78.72
54948;BME280;41113;41.882;12.530;2023-05-10T03:26:28;100688.22;;;18.46;79.89
54948;BME280;41113;41.882;12.530;2023-05-10T03:28:55;100683.06;;;18.51;78.43
54948;BME280;41113;41.882;12.530;2023-05-10T03:31:24;100685.50;;;18.46;79.63
54948;BME280;41113;41.882;12.530;2023-05-10T03:33:50;100680.06;;;18.46;79.07
54948;BME280;41113;41.882;12.530;2023-05-10T03:36:17;100681.38;;;18.50;78.30
54948;BME280;41113;41.882;12.530;2023-05-10T03:38:42;100684.41;;;18.55;78.09
54948;BME280;41113;41.882;12.530;2023-05-10T03:41:08;100681.69;;;18.55;78.65
54948;BME280;41113;41.882;12.530;2023-05-10T03:43:33;100674.25;;;18.49;79.52
54948;BME280;41113;41.882;12.530;2023-05-10T03:45:58;100687.66;;;18.35;80.69
54948;BME280;41113;41.882;12.530;2023-05-10T03:48:26;100683.44;;;18.33;80.47
54948;BME280;41113;41.882;12.530;2023-05-10T03:50:51;100677.16;;;18.47;79.10
54948;BME280;41113;41.882;12.530;2023-05-10T03:53:16;100678.13;;;18.69;77.85
54948;BME280;41113;41.882;12.530;2023-05-10T03:55:42;100686.06;;;18.85;77.04
54948;BME280;41113;41.882;12.530;2023-05-10T03:58:10;100681.56;;;18.92;76.62
54948;BME280;41113;41.882;12.530;2023-05-10T04:00:36;100683.34;;;19.00;76.22
54948;BME280;41113;41.882;12.530;2023-05-10T04:03:02;100686.78;;;19.09;75.88
54948;BME280;41113;41.882;12.530;2023-05-10T04:05:28;100685.09;;;19.08;75.79
54948;BME280;41113;41.882;12.530;2023-05-10T04:07:53;100688.69;;;18.93;76.43
54948;BME280;41113;41.882;12.530;2023-05-10T04:10:18;100685.53;;;18.75;77.74
54948;BME280;41113;41.882;12.530;2023-05-10T04:12:44;100687.69;;;18.65;78.27
54948;BME280;41113;41.882;12.530;2023-05-10T04:15:09;100686.75;;;18.58;78.07
54948;BME280;41113;41.882;12.530;2023-05-10T04:17:34;100681.50;;;18.56;78.23
54948;BME280;41113;41.882;12.530;2023-05-10T04:20:00;100683.28;;;18.64;77.79
54948;BME280;41113;41.882;12.530;2023-05-10T04:22:25;100684.22;;;18.71;77.60
54948;BME280;41113;41.882;12.530;2023-05-10T04:24:52;100672.75;;;18.61;77.77
54948;BME280;41113;41.882;12.530;2023-05-10T04:27:17;100680.38;;;18.65;77.27
54948;BME280;41113;41.882;12.530;2023-05-10T04:29:42;100671.81;;;18.83;76.84
54948;BME280;41113;41.882;12.530;2023-05-10T04:32:08;100668.81;;;18.93;76.58
54948;BME280;41113;41.882;12.530;2023-05-10T04:34:35;100666.81;;;19.02;76.23
54948;BME280;41113;41.882;12.530;2023-05-10T04:37:01;100663.69;;;19.05;76.23
54948;BME280;41113;41.882;12.530;2023-05-10T04:39:26;100659.28;;;19.04;77.36
54948;BME280;41113;41.882;12.530;2023-05-10T04:41:53;100664.69;;;18.82;78.52
54948;BME280;41113;41.882;12.530;2023-05-10T04:44:18;100666.75;;;18.80;77.65
54948;BME280;41113;41.882;12.530;2023-05-10T04:46:43;100663.16;;;18.94;77.12
54948;BME280;41113;41.882;12.530;2023-05-10T04:49:09;100664.16;;;19.08;76.20
54948;BME280;41113;41.882;12.530;2023-05-10T04:51:34;100672.19;;;19.16;75.64
54948;BME280;41113;41.882;12.530;2023-05-10T04:54:00;100666.84;;;19.23;75.05
54948;BME280;41113;41.882;12.530;2023-05-10T04:56:25;100670.88;;;19.27;74.90
54948;BME280;41113;41.882;12.530;2023-05-10T04:58:50;100671.13;;;19.32;74.60
54948;BME280;41113;41.882;12.530;2023-05-10T05:01:16;100676.56;;;19.32;74.46
54948;BME280;41113;41.882;12.530;2023-05-10T05:03:43;100675.53;;;19.33;74.42
54948;BME280;41113;41.882;12.530;2023-05-10T05:06:09;100673.19;;;19.30;74.42
54948;BME280;41113;41.882;12.530;2023-05-10T05:08:34;100679.09;;;19.34;74.29
54948;BME280;41113;41.882;12.530;2023-05-10T05:10:59;100673.31;;;19.43;73.76
54948;BME280;41113;41.882;12.530;2023-05-10T05:13:25;100678.00;;;19.49;73.81
54948;BME280;41113;41.882;12.530;2023-05-10T05:15:50;100676.63;;;19.53;73.62
54948;BME280;41113;41.882;12.530;2023-05-10T05:18:15;100677.63;;;19.52;73.79
54948;BME280;41113;41.882;12.530;2023-05-10T05:20:41;100681.41;;;19.51;73.83
54948;BME280;41113;41.882;12.530;2023-05-10T05:23:06;100672.09;;;19.46;74.13
54948;BME280;41113;41.882;12.530;2023-05-10T05:25:31;100675.94;;;19.51;73.93
54948;BME280;41113;41.882;12.530;2023-05-10T05:27:57;100671.81;;;19.55;74.14
54948;BME280;41113;41.882;12.530;2023-05-10T05:30:22;100673.31;;;19.58;74.01
54948;BME280;41113;41.882;12.530;2023-05-10T05:32:48;100674.59;;;19.62;73.88
54948;BME280;41113;41.882;12.530;2023-05-10T05:35:13;100675.06;;;19.51;74.32
54948;BME280;41113;41.882;12.530;2023-05-10T05:37:39;100672.53;;;19.49;74.66
54948;BME280;41113;41.882;12.530;2023-05-10T05:40:05;100671.81;;;19.55;74.37
54948;BME280;41113;41.882;12.530;2023-05-10T05:42:31;100679.22;;;19.47;74.91
54948;BME280;41113;41.882;12.530;2023-05-10T05:44:56;100678.00;;;19.49;74.86
54948;BME280;41113;41.882;12.530;2023-05-10T05:47:21;100681.50;;;19.43;74.81
54948;BME280;41113;41.882;12.530;2023-05-10T05:49:47;100678.78;;;19.43;74.75
54948;BME280;41113;41.882;12.530;2023-05-10T05:52:13;100688.81;;;19.43;75.67
54948;BME280;41113;41.882;12.530;2023-05-10T05:54:39;100691.75;;;19.41;76.48
54948;BME280;41113;41.882;12.530;2023-05-10T05:57:04;100689.03;;;19.20;79.00
54948;BME280;41113;41.882;12.530;2023-05-10T05:59:30;100690.72;;;19.21;78.24
54948;BME280;41113;41.882;12.530;2023-05-10T06:01:55;100688.06;;;19.13;79.06
54948;BME280;41113;41.882;12.530;2023-05-10T06:04:21;100686.78;;;19.09;79.35
54948;BME280;41113;41.882;12.530;2023-05-10T06:06:46;100692.16;;;19.02;79.78
54948;BME280;41113;41.882;12.530;2023-05-10T06:09:12;100690.47;;;19.01;79.33
54948;BME280;41113;41.882;12.530;2023-05-10T06:11:37;100694.28;;;19.07;78.97
54948;BME280;41113;41.882;12.530;2023-05-10T06:14:04;100694.28;;;19.07;79.33
54948;BME280;41113;41.882;12.530;2023-05-10T06:16:30;100692.22;;;19.09;79.68
54948;BME280;41113;41.882;12.530;2023-05-10T06:18:56;100691.13;;;19.03;80.45
54948;BME280;41113;41.882;12.530;2023-05-10T06:21:21;100691.69;;;18.99;80.73
54948;BME280;41113;41.882;12.530;2023-05-10T06:23:47;100688.78;;;19.00;80.22
54948;BME280;41113;41.882;12.530;2023-05-10T06:26:12;100687.28;;;18.98;80.58
54948;BME280;41113;41.882;12.530;2023-05-10T06:28:38;100691.03;;;18.96;80.98
54948;BME280;41113;41.882;12.530;2023-05-10T06:31:04;100692.72;;;18.98;80.78
54948;BME280;41113;41.882;12.530;2023-05-10T06:33:30;100689.34;;;18.95;80.70
54948;BME280;41113;41.882;12.530;2023-05-10T06:35:56;100696.47;;;18.96;80.33
54948;BME280;41113;41.882;12.530;2023-05-10T06:38:22;100699.59;;;18.93;80.76
54948;BME280;41113;41.882;12.530;2023-05-10T06:40:47;100694.53;;;18.90;81.16
54948;BME280;41113;41.882;12.530;2023-05-10T06:43:13;100697.63;;;18.87;81.39
54948;BME280;41113;41.882;12.530;2023-05-10T06:45:38;100686.81;;;18.79;81.70
54948;BME280;41113;41.882;12.530;2023-05-10T06:48:03;100698.00;;;18.70;82.67
54948;BME280;41113;41.882;12.530;2023-05-10T06:50:30;100692.56;;;18.70;82.41
54948;BME280;41113;41.882;12.530;2023-05-10T06:52:57;100696.41;;;18.75;82.31
54948;BME280;41113;41.882;12.530;2023-05-10T06:55:23;100697.34;;;18.82;81.75
54948;BME280;41113;41.882;12.530;2023-05-10T06:57:48;100698.28;;;18.89;81.33
54948;BME280;41113;41.882;12.530;2023-05-10T07:00:14;100700.16;;;18.74;82.21
54948;BME280;41113;41.882;12.530;2023-05-10T07:02:39;100694.72;;;18.74;82.41
54948;BME280;41113;41.882;12.530;2023-05-10T07:05:05;100695.47;;;18.68;82.73
54948;BME280;41113;41.882;12.530;2023-05-10T07:07:31;100705.31;;;18.69;82.65
54948;BME280;41113;41.882;12.530;2023-05-10T07:09:57;100700.72;;;18.70;83.19
54948;BME280;41113;41.882;12.530;2023-05-10T07:12:23;100692.66;;;18.76;82.61
54948;BME280;41113;41.882;12.530;2023-05-10T07:14:48;100699.13;;;18.75;82.83
54948;BME280;41113;41.882;12.530;2023-05-10T07:17:14;100701.56;;;18.70;83.51
54948;BME280;41113;41.882;12.530;2023-05-10T07:19:39;100697.94;;;18.63;83.85
54948;BME280;41113;41.882;12.530;2023-05-10T07:22:04;100700.91;;;18.68;83.52
54948;BME280;41113;41.882;12.530;2023-05-10T07:24:30;100693.41;;;18.70;83.75
54948;BME280;41113;41.882;12.530;2023-05-10T07:26:56;100692.66;;;18.76;83.81
54948;BME280;41113;41.882;12.530;2023-05-10T07:29:21;100693.13;;;18.65;84.61
54948;BME280;41113;41.882;12.530;2023-05-10T07:31:47;100694.19;;;18.64;84.20
54948;BME280;41113;41.882;12.530;2023-05-10T07:34:12;100692.38;;;18.71;84.23
54948;BME280;41113;41.882;12.530;2023-05-10T07:36:38;100682.91;;;18.67;84.42
54948;BME280;41113;41.882;12.530;2023-05-10T07:39:03;100678.28;;;18.38;85.24
54948;BME280;41113;41.882;12.530;2023-05-10T07:41:29;100687.28;;;18.53;84.94
54948;BME280;41113;41.882;12.530;2023-05-10T07:43:54;100682.53;;;18.70;83.95
54948;BME280;41113;41.882;12.530;2023-05-10T07:46:19;100677.63;;;18.80;83.09
54948;BME280;41113;41.882;12.530;2023-05-10T07:48:45;100673.97;;;18.88;83.07
54948;BME280;41113;41.882;12.530;2023-05-10T07:51:11;100679.88;;;18.91;82.09
54948;BME280;41113;41.882;12.530;2023-05-10T07:53:37;100676.50;;;18.89;82.07
54948;BME280;41113;41.882;12.530;2023-05-10T07:56:21;100677.25;;;18.83;82.45
54948;BME280;41113;41.882;12.530;2023-05-10T07:58:47;100677.44;;;18.96;81.93
54948;BME280;41113;41.882;12.530;2023-05-10T08:01:12;100669.16;;;19.05;81.76
54948;BME280;41113;41.882;12.530;2023-05-10T08:03:37;100669.78;;;19.07;81.01
54948;BME280;41113;41.882;12.530;2023-05-10T08:06:03;100677.56;;;19.10;80.96
54948;BME280;41113;41.882;12.530;2023-05-10T08:08:28;100679.53;;;19.16;80.45
54948;BME280;41113;41.882;12.530;2023-05-10T08:10:55;100677.44;;;19.18;80.67
54948;BME280;41113;41.882;12.530;2023-05-10T08:13:21;100682.16;;;19.24;80.21
54948;BME280;41113;41.882;12.530;2023-05-10T08:15:46;100678.59;;;19.23;80.14
54948;BME280;41113;41.882;12.530;2023-05-10T08:18:12;100673.13;;;19.23;79.78
54948;BME280;41113;41.882;12.530;2023-05-10T08:20:37;100680.72;;;19.28;79.71
54948;BME280;41113;41.882;12.530;2023-05-10T08:23:03;100679.94;;;19.34;79.58
54948;BME280;41113;41.882;12.530;2023-05-10T08:25:29;100676.44;;;19.40;79.25
54948;BME280;41113;41.882;12.530;2023-05-10T08:27:54;100678.38;;;19.46;78.90
54948;BME280;41113;41.882;12.530;2023-05-10T08:30:21;100678.97;;;19.56;78.10
54948;BME280;41113;41.882;12.530;2023-05-10T08:32:46;100680.69;;;19.64;77.98
54948;BME280;41113;41.882;12.530;2023-05-10T08:35:11;100679.50;;;19.73;77.45
54948;BME280;41113;41.882;12.530;2023-05-10T08:37:37;100674.00;;;19.88;77.15
54948;BME280;41113;41.882;12.530;2023-05-10T08:40:02;100672.81;;;19.97;76.37
54948;BME280;41113;41.882;12.530;2023-05-10T08:42:30;100667.34;;;19.97;76.36
54948;BME280;41113;41.882;12.530;2023-05-10T08:44:57;100669.44;;;19.95;76.88
54948;BME280;41113;41.882;12.530;2023-05-10T08:47:22;100665.75;;;20.09;76.35
54948;BME280;41113;41.882;12.530;2023-05-10T08:49:48;100675.22;;;20.13;76.56
54948;BME280;41113;41.882;12.530;2023-05-10T08:52:16;100660.22;;;20.24;75.71
54948;BME280;41113;41.882;12.530;2023-05-10T08:54:42;100665.69;;;20.31;75.18
54948;BME280;41113;41.882;12.530;2023-05-10T08:57:10;100666.13;;;20.34;75.00
54948;BME280;41113;41.882;12.530;2023-05-10T08:59:36;100653.97;;;20.37;74.99
54948;BME280;41113;41.882;12.530;2023-05-10T09:02:05;100658.25;;;20.46;74.61
54948;BME280;41113;41.882;12.530;2023-05-10T09:04:31;100661.19;;;20.44;74.43
54948;BME280;41113;41.882;12.530;2023-05-10T09:06:56;100659.94;;;20.47;75.44
54948;BME280;41113;41.882;12.530;2023-05-10T09:09:25;100645.75;;;20.58;75.14
54948;BME280;41113;41.882;12.530;2023-05-10T09:11:51;100652.88;;;20.59;74.86
54948;BME280;41113;41.882;12.530;2023-05-10T09:14:17;100654.38;;;20.62;74.95
54948;BME280;41113;41.882;12.530;2023-05-10T09:16:43;100642.44;;;20.69;74.32
54948;BME280;41113;41.882;12.530;2023-05-10T09:19:09;100638.88;;;20.75;73.86
54948;BME280;41113;41.882;12.530;2023-05-10T09:21:36;100648.25;;;20.53;74.96
54948;BME280;41113;41.882;12.530;2023-05-10T09:24:05;100649.84;;;20.41;75.37
54948;BME280;41113;41.882;12.530;2023-05-10T09:26:31;100644.88;;;20.51;75.16
54948;BME280;41113;41.882;12.530;2023-05-10T09:28:58;100638.00;;;20.68;74.64
54948;BME280;41113;41.882;12.530;2023-05-10T09:31:48;100642.03;;;20.72;74.26
54948;BME280;41113;41.882;12.530;2023-05-10T09:34:16;100637.88;;;20.83;73.60
54948;BME280;41113;41.882;12.530;2023-05-10T09:36:59;100639.38;;;20.99;73.53
54948;BME280;41113;41.882;12.530;2023-05-10T09:39:33;100640.44;;;20.98;73.62
54948;BME280;41113;41.882;12.530;2023-05-10T09:42:04;100643.81;;;21.06;73.23
54948;BME280;41113;41.882;12.530;2023-05-10T09:44:33;100626.22;;;21.22;72.90
54948;BME280;41113;41.882;12.530;2023-05-10T09:47:00;100627.94;;;21.36;72.24
54948;BME280;41113;41.882;12.530;2023-05-10T09:49:27;100620.41;;;21.52;72.22
54948;BME280;41113;41.882;12.530;2023-05-10T09:52:07;100628.81;;;21.57;70.24
54948;BME280;41113;41.882;12.530;2023-05-10T09:54:35;100617.47;;;21.60;70.69
54948;BME280;41113;41.882;12.530;2023-05-10T09:57:04;100622.94;;;21.47;71.52
54948;BME280;41113;41.882;12.530;2023-05-10T09:59:33;100622.06;;;21.39;71.42
54948;BME280;41113;41.882;12.530;2023-05-10T10:02:00;100619.97;;;21.35;72.28
54948;BME280;41113;41.882;12.530;2023-05-10T10:04:27;100619.97;;;21.28;72.83
54948;BME280;41113;41.882;12.530;2023-05-10T10:07:00;100620.13;;;21.20;72.58
54948;BME280;41113;41.882;12.530;2023-05-10T10:09:28;100618.22;;;21.14;72.47
54948;BME280;41113;41.882;12.530;2023-05-10T10:11:54;100620.31;;;21.12;72.69
54948;BME280;41113;41.882;12.530;2023-05-10T10:14:27;100619.88;;;21.02;72.80
54948;BME280;41113;41.882;12.530;2023-05-10T10:16:54;100621.34;;;21.04;72.62
54948;BME280;41113;41.882;12.530;2023-05-10T10:19:22;100607.22;;;20.88;72.94
54948;BME280;41113;41.882;12.530;2023-05-10T10:21:56;100608.91;;;20.89;73.27
54948;BME280;41113;41.882;12.530;2023-05-10T10:24:28;100610.19;;;20.93;73.53
54948;BME280;41113;41.882;12.530;2023-05-10T10:30:43;100607.19;;;20.81;74.83
54948;BME280;41113;41.882;12.530;2023-05-10T10:36:12;100595.91;;;20.91;74.42
54948;BME280;41113;41.882;12.530;2023-05-10T10:41:34;100595.16;;;21.36;72.70
54948;BME280;41113;41.882;12.530;2023-05-10T10:44:33;100598.13;;;21.55;72.33
54948;BME280;41113;41.882;12.530;2023-05-10T10:47:21;100592.25;;;21.58;71.47
54948;BME280;41113;41.882;12.530;2023-05-10T10:50:03;100594.75;;;21.59;69.77
54948;BME280;41113;41.882;12.530;2023-05-10T10:52:39;100588.44;;;21.72;70.05
54948;BME280;41113;41.882;12.530;2023-05-10T10:57:43;100585.09;;;21.63;70.64
54948;BME280;41113;41.882;12.530;2023-05-10T11:03:13;100578.09;;;21.21;70.86
54948;BME280;41113;41.882;12.530;2023-05-10T11:05:43;100578.94;;;21.15;71.73
54948;BME280;41113;41.882;12.530;2023-05-10T11:08:30;100582.47;;;21.09;71.41
54948;BME280;41113;41.882;12.530;2023-05-10T11:13:32;100584.34;;;20.82;72.52
54948;BME280;41113;41.882;12.530;2023-05-10T11:15:59;100586.38;;;20.67;72.99
54948;BME280;41113;41.882;12.530;2023-05-10T11:18:36;100583.66;;;20.73;72.91
54948;BME280;41113;41.882;12.530;2023-05-10T11:21:02;100589.94;;;20.67;72.53
54948;BME280;41113;41.882;12.530;2023-05-10T11:26:07;100594.47;;;20.47;73.60
54948;BME280;41113;41.882;12.530;2023-05-10T11:28:47;100588.22;;;20.53;73.94
54948;BME280;41113;41.882;12.530;2023-05-10T11:31:18;100597.19;;;20.47;73.80
54948;BME280;41113;41.882;12.530;2023-05-10T11:33:54;100593.97;;;20.37;74.45
54948;BME280;41113;41.882;12.530;2023-05-10T11:36:22;100591.31;;;20.43;74.47
54948;BME280;41113;41.882;12.530;2023-05-10T11:38:48;100583.44;;;20.27;74.63
54948;BME280;41113;41.882;12.530;2023-05-10T11:41:15;100590.59;;;20.35;74.48
54948;BME280;41113;41.882;12.530;2023-05-10T11:43:42;100589.81;;;20.41;74.04
54948;BME280;41113;41.882;12.530;2023-05-10T11:46:10;100597.06;;;20.62;73.61
54948;BME280;41113;41.882;12.530;2023-05-10T11:48:36;100593.25;;;20.56;73.60
54948;BME280;41113;41.882;12.530;2023-05-10T11:51:01;100590.31;;;20.51;74.13
54948;BME280;41113;41.882;12.530;2023-05-10T11:53:29;100579.59;;;20.49;74.38
54948;BME280;41113;41.882;12.530;2023-05-10T11:55:55;100577.03;;;20.48;73.99
54948;BME280;41113;41.882;12.530;2023-05-10T11:58:21;100563.75;;;20.38;74.76
54948;BME280;41113;41.882;12.530;2023-05-10T12:00:48;100569.13;;;20.18;74.69
54948;BME280;41113;41.882;12.530;2023-05-10T12:03:14;100568.31;;;20.25;75.05
54948;BME280;41113;41.882;12.530;2023-05-10T12:05:39;100563.97;;;20.37;74.45
54948;BME280;41113;41.882;12.530;2023-05-10T12:08:14;100564.22;;;20.42;73.88
54948;BME280;41113;41.882;12.530;2023-05-10T12:10:40;100554.50;;;20.33;74.58
54948;BME280;41113;41.882;12.530;2023-05-10T12:13:10;100552.31;;;20.15;74.88
54948;BME280;41113;41.882;12.530;2023-05-10T12:15:36;100551.16;;;20.31;74.54
54948;BME280;41113;41.882;12.530;2023-05-10T12:18:01;100548.66;;;20.36;74.24
54948;BME280;41113;41.882;12.530;2023-05-10T12:20:28;100546.97;;;20.35;74.02
54948;BME280;41113;41.882;12.530;2023-05-10T12:22:58;100546.03;;;20.49;73.75
54948;BME280;41113;41.882;12.530;2023-05-10T12:25:35;100541.78;;;20.46;73.56
54948;BME280;41113;41.882;12.530;2023-05-10T12:28:05;100542.06;;;20.58;72.50
54948;BME280;41113;41.882;12.530;2023-05-10T12:30:33;100531.34;;;20.63;72.52
54948;BME280;41113;41.882;12.530;2023-05-10T12:33:06;100534.31;;;20.68;71.91
54948;BME280;41113;41.882;12.530;2023-05-10T12:35:32;100532.00;;;20.78;71.19
54948;BME280;41113;41.882;12.530;2023-05-10T12:37:59;100527.84;;;20.83;71.35
54948;BME280;41113;41.882;12.530;2023-05-10T12:40:25;100523.19;;;20.76;71.11
54948;BME280;41113;41.882;12.530;2023-05-10T12:42:50;100526.56;;;20.78;71.47
54948;BME280;41113;41.882;12.530;2023-05-10T12:45:17;100521.34;;;20.84;70.94
54948;BME280;41113;41.882;12.530;2023-05-10T12:47:43;100524.66;;;20.79;71.42
54948;BME280;41113;41.882;12.530;2023-05-10T12:50:08;100523.88;;;20.85;71.66
54948;BME280;41113;41.882;12.530;2023-05-10T12:52:34;100521.13;;;20.92;71.17
54948;BME280;41113;41.882;12.530;2023-05-10T12:55:02;100514.41;;;21.07;70.78
54948;BME280;41113;41.882;12.530;2023-05-10T12:57:28;100514.84;;;21.04;70.27
54948;BME280;41113;41.882;12.530;2023-05-10T12:59:54;100508.53;;;20.97;70.46
54948;BME280;41113;41.882;12.530;2023-05-10T13:02:21;100511.06;;;20.99;69.85
54948;BME280;41113;41.882;12.530;2023-05-10T13:04:48;100508.97;;;21.01;69.41
54948;BME280;41113;41.882;12.530;2023-05-10T13:07:13;100508.13;;;21.13;69.12
54948;BME280;41113;41.882;12.530;2023-05-10T13:09:39;100511.09;;;21.19;68.91
54948;BME280;41113;41.882;12.530;2023-05-10T13:12:05;100498.09;;;21.27;68.64
54948;BME280;41113;41.882;12.530;2023-05-10T13:14:31;100503.53;;;21.40;68.30